sensor_id;sensor_type;location;lat;lon;timestamp;temperature;humidity
8557;DHT22;4316;53.840;10.762;2023-05-29T00:02:14;13.50;99.90
8557;DHT22;4316;53.840;10.762;2023-05-29T00:04:40;13.60;99.90
8557;DHT22;4316;53.840;10.762;2023-05-29T00:07:06;13.50;99.90
8557;DHT22;4316;53.840;10.762;2023-05-29T00:09:31;13.40;99.90
8557;DHT22;4316;53.840;10.762;2023-05-29T00:11:57;13.50;99.90
8557;DHT22;4316;53.840;10.762;2023-05-29T00:14:22;13.60;99.90
8557;DHT22;4316;53.840;10.762;2023-05-29T00:16:51;13.50;99.90
8557;DHT22;4316;53.840;10.762;2023-05-29T00:19:17;13.40;99.90
8557;DHT22;4316;53.840;10.762;2023-05-29T00:21:45;13.30;99.90
8557;DHT22;4316;53.840;10.762;2023-05-29T00:24:14;13.40;99.90
8557;DHT22;4316;53.840;10.762;2023-05-29T00:26:40;13.40;99.90
8557;DHT22;4316;53.840;10.762;2023-05-29T00:29:05;13.40;99.90
8557;DHT22;4316;53.840;10.762;2023-05-29T00:31:32;13.30;99.90
8557;DHT22;4316;53.840;10.762;2023-05-29T00:33:58;13.30;99.90
8557;DHT22;4316;53.840;10.762;2023-05-29T00:36:24;13.20;99.90
8557;DHT22;4316;53.840;10.762;2023-05-29T00:38:50;13.20;99.90
8557;DHT22;4316;53.840;10.762;2023-05-29T00:41:16;13.10;99.90
8557;DHT22;4316;53.840;10.762;2023-05-29T00:43:42;13.00;99.90
8557;DHT22;4316;53.840;10.762;2023-05-29T00:46:13;12.90;99.90
8557;DHT22;4316;53.840;10.762;2023-05-29T00:48:40;12.90;99.90
8557;DHT22;4316;53.840;10.762;2023-05-29T00:51:07;12.80;99.90
8557;DHT22;4316;53.840;10.762;2023-05-29T00:53:33;12.80;99.90
8557;DHT22;4316;53.840;10.762;2023-05-29T00:55:59;12.80;99.90
8557;DHT22;4316;53.840;10.762;2023-05-29T00:58:26;12.80;99.90
8557;DHT22;4316;53.840;10.762;2023-05-29T01:00:51;12.80;99.90
8557;DHT22;4316;53.840;10.762;2023-05-29T01:03:18;12.70;99.90
8557;DHT22;4316;53.840;10.762;2023-05-29T01:05:44;12.70;99.90
8557;DHT22;4316;53.840;10.762;2023-05-29T01:08:12;12.80;99.90
8557;DHT22;4316;53.840;10.762;2023-05-29T01:10:37;12.70;99.90
8557;DHT22;4316;53.840;10.762;2023-05-29T01:13:08;12.70;99.90
8557;DHT22;4316;53.840;10.762;2023-05-29T01:15:46;12.60;99.90
8557;DHT22;4316;53.840;10.762;2023-05-29T01:24:14;12.50;99.90
8557;DHT22;4316;53.840;10.762;2023-05-29T01:26:50;12.50;99.90
8557;DHT22;4316;53.840;10.762;2023-05-29T01:29:26;12.50;99.90
8557;DHT22;4316;53.840;10.762;2023-05-29T01:31:54;12.50;99.90
8557;DHT22;4316;53.840;10.762;2023-05-29T01:34:20;12.50;99.90
8557;DHT22;4316;53.840;10.762;2023-05-29T01:36:45;12.60;99.90
8557;DHT22;4316;53.840;10.762;2023-05-29T01:39:14;12.50;99.90
8557;DHT22;4316;53.840;10.762;2023-05-29T01:41:41;12.50;99.90
8557;DHT22;4316;53.840;10.762;2023-05-29T01:44:08;12.50;99.90
8557;DHT22;4316;53.840;10.762;2023-05-29T01:46:36;12.50;99.90
8557;DHT22;4316;53.840;10.762;2023-05-29T01:49:03;12.50;99.90
8557;DHT22;4316;53.840;10.762;2023-05-29T01:51:28;12.50;99.90
8557;DHT22;4316;53.840;10.762;2023-05-29T01:53:54;12.40;99.90
8557;DHT22;4316;53.840;10.762;2023-05-29T01:56:20;12.40;99.90
8557;DHT22;4316;53.840;10.762;2023-05-29T01:58:47;12.40;99.90
8557;DHT22;4316;53.840;10.762;2023-05-29T02:01:13;12.40;99.90
8557;DHT22;4316;53.840;10.762;2023-05-29T02:03:38;12.30;99.90
8557;DHT22;4316;53.840;10.762;2023-05-29T02:06:04;12.30;99.90
8557;DHT22;4316;53.840;10.762;2023-05-29T02:08:32;12.30;99.90
8557;DHT22;4316;53.840;10.762;2023-05-29T02:10:57;12.30;99.90
8557;DHT22;4316;53.840;10.762;2023-05-29T02:13:23;12.30;99.90
8557;DHT22;4316;53.840;10.762;2023-05-29T02:15:48;12.30;99.90
8557;DHT22;4316;53.840;10.762;2023-05-29T02:18:15;12.20;99.90
8557;DHT22;4316;53.840;10.762;2023-05-29T02:20:44;12.10;99.90
8557;DHT22;4316;53.840;10.762;2023-05-29T02:23:10;12.10;99.90
8557;DHT22;4316;53.840;10.762;2023-05-29T02:25:35;12.10;99.90
8557;DHT22;4316;53.840;10.762;2023-05-29T02:28:02;12.00;99.90
8557;DHT22;4316;53.840;10.762;2023-05-29T02:30:28;11.90;99.90
8557;DHT22;4316;53.840;10.762;2023-05-29T02:32:54;11.90;99.90
8557;DHT22;4316;53.840;10.762;2023-05-29T02:35:20;11.80;99.90
8557;DHT22;4316;53.840;10.762;2023-05-29T02:37:51;11.80;99.90
8557;DHT22;4316;53.840;10.762;2023-05-29T02:40:18;11.80;99.90
8557;DHT22;4316;53.840;10.762;2023-05-29T02:42:44;11.70;99.90
8557;DHT22;4316;53.840;10.762;2023-05-29T02:45:10;11.70;99.90
8557;DHT22;4316;53.840;10.762;2023-05-29T02:47:36;11.70;99.90
8557;DHT22;4316;53.840;10.762;2023-05-29T02:50:02;11.80;99.90
8557;DHT22;4316;53.840;10.762;2023-05-29T02:52:28;11.70;99.90
8557;DHT22;4316;53.840;10.762;2023-05-29T02:54:53;11.80;99.90
8557;DHT22;4316;53.840;10.762;2023-05-29T02:57:22;11.80;99.90
8557;DHT22;4316;53.840;10.762;2023-05-29T02:59:48;11.80;99.90
8557;DHT22;4316;53.840;10.762;2023-05-29T03:02:14;11.80;99.90
8557;DHT22;4316;53.840;10.762;2023-05-29T03:04:40;11.70;99.90
8557;DHT22;4316;53.840;10.762;2023-05-29T03:07:05;11.70;99.90
8557;DHT22;4316;53.840;10.762;2023-05-29T03:09:32;11.70;99.90
8557;DHT22;4316;53.840;10.762;2023-05-29T03:11:58;11.70;99.90
8557;DHT22;4316;53.840;10.762;2023-05-29T03:14:27;11.60;99.90
8557;DHT22;4316;53.840;10.762;2023-05-29T03:16:54;11.60;99.90
8557;DHT22;4316;53.840;10.762;2023-05-29T03:19:20;11.60;99.90
8557;DHT22;4316;53.840;10.762;2023-05-29T03:21:46;11.50;99.90
8557;DHT22;4316;53.840;10.762;2023-05-29T03:24:12;11.40;99.90
8557;DHT22;4316;53.840;10.762;2023-05-29T03:26:40;11.40;99.90
8557;DHT22;4316;53.840;10.762;2023-05-29T03:29:06;11.40;99.90
8557;DHT22;4316;53.840;10.762;2023-05-29T03:31:33;11.40;99.90
8557;DHT22;4316;53.840;10.762;2023-05-29T03:33:59;11.50;99.90
8557;DHT22;4316;53.840;10.762;2023-05-29T03:36:34;11.40;99.90
8557;DHT22;4316;53.840;10.762;2023-05-29T03:39:02;11.40;99.90
8557;DHT22;4316;53.840;10.762;2023-05-29T03:41:28;11.40;99.90
8557;DHT22;4316;53.840;10.762;2023-05-29T03:43:54;11.40;99.90
8557;DHT22;4316;53.840;10.762;2023-05-29T03:46:22;11.40;99.90
8557;DHT22;4316;53.840;10.762;2023-05-29T03:48:48;11.30;99.90
8557;DHT22;4316;53.840;10.762;2023-05-29T03:51:13;11.30;99.90
8557;DHT22;4316;53.840;10.762;2023-05-29T03:53:39;11.30;99.90
8557;DHT22;4316;53.840;10.762;2023-05-29T03:56:05;11.30;99.90
8557;DHT22;4316;53.840;10.762;2023-05-29T03:58:32;11.30;99.90
8557;DHT22;4316;53.840;10.762;2023-05-29T04:00:58;11.40;99.90
8557;DHT22;4316;53.840;10.762;2023-05-29T04:03:26;11.40;99.90
8557;DHT22;4316;53.840;10.762;2023-05-29T04:05:51;11.20;99.90
8557;DHT22;4316;53.840;10.762;2023-05-29T04:08:18;11.30;99.90
8557;DHT22;4316;53.840;10.762;2023-05-29T04:10:44;11.30;99.90
8557;DHT22;4316;53.840;10.762;2023-05-29T04:13:09;11.30;99.90
8557;DHT22;4316;53.840;10.762;2023-05-29T04:15:35;11.20;99.90
8557;DHT22;4316;53.840;10.762;2023-05-29T04:18:02;11.10;99.90
8557;DHT22;4316;53.840;10.762;2023-05-29T04:20:28;11.20;99.90
8557;DHT22;4316;53.840;10.762;2023-05-29T04:22:53;11.20;99.90
8557;DHT22;4316;53.840;10.762;2023-05-29T04:25:19;11.20;99.90
8557;DHT22;4316;53.840;10.762;2023-05-29T04:27:45;11.20;99.90
8557;DHT22;4316;53.840;10.762;2023-05-29T04:30:15;11.00;99.90
8557;DHT22;4316;53.840;10.762;2023-05-29T04:32:44;11.00;99.90
8557;DHT22;4316;53.840;10.762;2023-05-29T04:35:10;11.00;99.90
8557;DHT22;4316;53.840;10.762;2023-05-29T04:37:41;11.00;99.90
8557;DHT22;4316;53.840;10.762;2023-05-29T04:40:09;11.00;99.90
8557;DHT22;4316;53.840;10.762;2023-05-29T04:42:39;11.00;99.90
8557;DHT22;4316;53.840;10.762;2023-05-29T04:45:08;11.10;99.90
8557;DHT22;4316;53.840;10.762;2023-05-29T04:47:36;11.20;99.90
8557;DHT22;4316;53.840;10.762;2023-05-29T04:50:12;11.20;99.90
8557;DHT22;4316;53.840;10.762;2023-05-29T04:52:39;11.00;99.90
8557;DHT22;4316;53.840;10.762;2023-05-29T04:55:06;11.10;99.90
8557;DHT22;4316;53.840;10.762;2023-05-29T04:57:32;11.20;99.90
8557;DHT22;4316;53.840;10.762;2023-05-29T04:59:57;11.40;99.90
8557;DHT22;4316;53.840;10.762;2023-05-29T05:02:23;11.40;99.90
8557;DHT22;4316;53.840;10.762;2023-05-29T05:04:49;11.40;99.90
8557;DHT22;4316;53.840;10.762;2023-05-29T05:07:15;11.40;99.90
8557;DHT22;4316;53.840;10.762;2023-05-29T05:09:42;11.30;99.90
8557;DHT22;4316;53.840;10.762;2023-05-29T05:12:11;11.40;99.90
8557;DHT22;4316;53.840;10.762;2023-05-29T05:14:37;11.50;99.90
8557;DHT22;4316;53.840;10.762;2023-05-29T05:17:03;11.50;99.90
8557;DHT22;4316;53.840;10.762;2023-05-29T05:19:28;11.40;99.90
8557;DHT22;4316;53.840;10.762;2023-05-29T05:21:54;11.50;99.90
8557;DHT22;4316;53.840;10.762;2023-05-29T05:24:21;11.60;99.90
8557;DHT22;4316;53.840;10.762;2023-05-29T05:26:47;11.70;99.90
8557;DHT22;4316;53.840;10.762;2023-05-29T05:29:13;11.80;99.90
8557;DHT22;4316;53.840;10.762;2023-05-29T05:31:39;11.90;99.90
8557;DHT22;4316;53.840;10.762;2023-05-29T05:34:05;12.00;99.90
8557;DHT22;4316;53.840;10.762;2023-05-29T05:36:31;12.00;99.90
8557;DHT22;4316;53.840;10.762;2023-05-29T05:39:02;12.00;99.90
8557;DHT22;4316;53.840;10.762;2023-05-29T05:41:39;12.00;99.90
8557;DHT22;4316;53.840;10.762;2023-05-29T05:44:05;12.10;99.90
8557;DHT22;4316;53.840;10.762;2023-05-29T05:46:43;12.20;99.90
8557;DHT22;4316;53.840;10.762;2023-05-29T05:49:08;12.20;99.90
8557;DHT22;4316;53.840;10.762;2023-05-29T05:51:34;12.30;99.90
8557;DHT22;4316;53.840;10.762;2023-05-29T05:54:00;12.30;99.90
8557;DHT22;4316;53.840;10.762;2023-05-29T05:56:27;12.40;99.90
8557;DHT22;4316;53.840;10.762;2023-05-29T05:58:52;12.40;99.90
8557;DHT22;4316;53.840;10.762;2023-05-29T06:01:19;12.60;99.90
8557;DHT22;4316;53.840;10.762;2023-05-29T06:03:45;12.70;99.90
8557;DHT22;4316;53.840;10.762;2023-05-29T06:06:11;12.80;99.90
8557;DHT22;4316;53.840;10.762;2023-05-29T06:08:38;13.00;99.90
8557;DHT22;4316;53.840;10.762;2023-05-29T06:11:06;13.10;99.90
8557;DHT22;4316;53.840;10.762;2023-05-29T06:13:35;13.20;99.90
8557;DHT22;4316;53.840;10.762;2023-05-29T06:16:08;13.10;99.90
8557;DHT22;4316;53.840;10.762;2023-05-29T06:18:34;13.30;99.90
8557;DHT22;4316;53.840;10.762;2023-05-29T06:21:01;13.40;99.90
8557;DHT22;4316;53.840;10.762;2023-05-29T06:23:26;13.70;99.90
8557;DHT22;4316;53.840;10.762;2023-05-29T06:25:52;13.80;99.90
8557;DHT22;4316;53.840;10.762;2023-05-29T06:28:19;14.00;99.90
8557;DHT22;4316;53.840;10.762;2023-05-29T06:30:45;13.90;99.90
8557;DHT22;4316;53.840;10.762;2023-05-29T06:33:11;13.80;99.90
8557;DHT22;4316;53.840;10.762;2023-05-29T06:35:38;13.90;99.90
8557;DHT22;4316;53.840;10.762;2023-05-29T06:38:05;14.20;99.90
8557;DHT22;4316;53.840;10.762;2023-05-29T06:40:31;14.50;99.90
8557;DHT22;4316;53.840;10.762;2023-05-29T06:42:56;14.80;99.90
8557;DHT22;4316;53.840;10.762;2023-05-29T06:45:36;15.10;99.90
8557;DHT22;4316;53.840;10.762;2023-05-29T06:48:01;15.00;99.90
8557;DHT22;4316;53.840;10.762;2023-05-29T06:50:27;14.90;99.90
8557;DHT22;4316;53.840;10.762;2023-05-29T06:52:53;14.80;99.90
8557;DHT22;4316;53.840;10.762;2023-05-29T06:55:26;14.80;99.90
8557;DHT22;4316;53.840;10.762;2023-05-29T06:57:54;14.80;99.90
8557;DHT22;4316;53.840;10.762;2023-05-29T07:00:20;14.90;99.90
8557;DHT22;4316;53.840;10.762;2023-05-29T07:02:55;14.80;99.90
8557;DHT22;4316;53.840;10.762;2023-05-29T07:05:21;14.80;99.90
8557;DHT22;4316;53.840;10.762;2023-05-29T07:07:46;15.10;99.90
8557;DHT22;4316;53.840;10.762;2023-05-29T07:10:12;15.40;99.90
8557;DHT22;4316;53.840;10.762;2023-05-29T07:12:38;15.40;99.90
8557;DHT22;4316;53.840;10.762;2023-05-29T07:15:04;15.30;99.90
8557;DHT22;4316;53.840;10.762;2023-05-29T07:17:30;15.50;99.90
8557;DHT22;4316;53.840;10.762;2023-05-29T07:20:07;15.60;99.90
8557;DHT22;4316;53.840;10.762;2023-05-29T07:22:34;15.80;99.90
8557;DHT22;4316;53.840;10.762;2023-05-29T07:25:00;16.20;99.90
8557;DHT22;4316;53.840;10.762;2023-05-29T07:27:27;16.60;99.90
8557;DHT22;4316;53.840;10.762;2023-05-29T07:29:53;16.70;99.90
8557;DHT22;4316;53.840;10.762;2023-05-29T07:32:19;16.90;99.90
8557;DHT22;4316;53.840;10.762;2023-05-29T07:34:44;16.90;99.90
8557;DHT22;4316;53.840;10.762;2023-05-29T07:37:11;16.70;99.90
8557;DHT22;4316;53.840;10.762;2023-05-29T07:39:38;16.70;99.90
8557;DHT22;4316;53.840;10.762;2023-05-29T07:42:14;17.00;99.90
8557;DHT22;4316;53.840;10.762;2023-05-29T07:44:42;17.40;99.90
8557;DHT22;4316;53.840;10.762;2023-05-29T07:47:11;17.50;99.00
8557;DHT22;4316;53.840;10.762;2023-05-29T07:49:41;17.10;98.40
8557;DHT22;4316;53.840;10.762;2023-05-29T07:52:07;16.80;98.90
8557;DHT22;4316;53.840;10.762;2023-05-29T07:54:33;16.70;98.50
8557;DHT22;4316;53.840;10.762;2023-05-29T07:57:00;16.90;98.00
8557;DHT22;4316;53.840;10.762;2023-05-29T07:59:26;17.10;97.70
8557;DHT22;4316;53.840;10.762;2023-05-29T08:01:51;17.20;97.40
8557;DHT22;4316;53.840;10.762;2023-05-29T08:04:37;17.30;97.70
8557;DHT22;4316;53.840;10.762;2023-05-29T08:07:03;17.20;97.50
8557;DHT22;4316;53.840;10.762;2023-05-29T08:09:32;17.40;97.80
8557;DHT22;4316;53.840;10.762;2023-05-29T08:11:58;17.20;97.50
8557;DHT22;4316;53.840;10.762;2023-05-29T08:14:26;17.10;97.50
8557;DHT22;4316;53.840;10.762;2023-05-29T08:16:52;17.20;97.40
8557;DHT22;4316;53.840;10.762;2023-05-29T08:19:18;17.10;97.50
8557;DHT22;4316;53.840;10.762;2023-05-29T08:21:43;17.00;97.40
8557;DHT22;4316;53.840;10.762;2023-05-29T08:24:09;17.30;97.10
8557;DHT22;4316;53.840;10.762;2023-05-29T08:26:35;17.50;96.90
8557;DHT22;4316;53.840;10.762;2023-05-29T08:29:00;17.20;97.70
8557;DHT22;4316;53.840;10.762;2023-05-29T08:31:26;17.30;97.90
8557;DHT22;4316;53.840;10.762;2023-05-29T08:33:53;17.70;97.30
8557;DHT22;4316;53.840;10.762;2023-05-29T08:36:18;18.10;97.50
8557;DHT22;4316;53.840;10.762;2023-05-29T08:38:47;18.30;97.50
8557;DHT22;4316;53.840;10.762;2023-05-29T08:41:28;18.60;96.20
8557;DHT22;4316;53.840;10.762;2023-05-29T08:43:59;18.70;95.50
8557;DHT22;4316;53.840;10.762;2023-05-29T08:46:29;18.30;95.70
8557;DHT22;4316;53.840;10.762;2023-05-29T08:48:58;18.70;96.70
8557;DHT22;4316;53.840;10.762;2023-05-29T08:51:27;18.90;96.00
8557;DHT22;4316;53.840;10.762;2023-05-29T08:53:56;19.20;95.90
8557;DHT22;4316;53.840;10.762;2023-05-29T08:56:21;19.50;95.40
8557;DHT22;4316;53.840;10.762;2023-05-29T08:58:48;19.10;95.70
8557;DHT22;4316;53.840;10.762;2023-05-29T09:01:14;18.60;95.90
8557;DHT22;4316;53.840;10.762;2023-05-29T09:03:40;18.80;96.40
8557;DHT22;4316;53.840;10.762;2023-05-29T09:06:07;19.00;95.70
8557;DHT22;4316;53.840;10.762;2023-05-29T09:08:34;19.30;95.60
8557;DHT22;4316;53.840;10.762;2023-05-29T09:11:00;19.50;95.20
8557;DHT22;4316;53.840;10.762;2023-05-29T09:13:26;19.50;94.50
8557;DHT22;4316;53.840;10.762;2023-05-29T09:16:02;19.80;94.70
8557;DHT22;4316;53.840;10.762;2023-05-29T09:18:32;19.90;94.60
8557;DHT22;4316;53.840;10.762;2023-05-29T09:20:58;20.20;94.90
8557;DHT22;4316;53.840;10.762;2023-05-29T09:23:25;20.20;94.40
8557;DHT22;4316;53.840;10.762;2023-05-29T09:25:52;20.40;93.90
8557;DHT22;4316;53.840;10.762;2023-05-29T09:28:20;20.50;93.90
8557;DHT22;4316;53.840;10.762;2023-05-29T09:30:46;20.60;94.30
8557;DHT22;4316;53.840;10.762;2023-05-29T09:33:14;20.80;94.50
8557;DHT22;4316;53.840;10.762;2023-05-29T09:35:46;21.10;94.20
8557;DHT22;4316;53.840;10.762;2023-05-29T09:38:21;20.70;94.20
8557;DHT22;4316;53.840;10.762;2023-05-29T09:40:47;20.80;94.30
8557;DHT22;4316;53.840;10.762;2023-05-29T09:45:45;20.80;94.20
8557;DHT22;4316;53.840;10.762;2023-05-29T09:48:22;20.80;94.10
8557;DHT22;4316;53.840;10.762;2023-05-29T09:50:48;21.20;94.30
8557;DHT22;4316;53.840;10.762;2023-05-29T09:53:27;21.40;93.40
8557;DHT22;4316;53.840;10.762;2023-05-29T09:55:57;21.20;93.60
8557;DHT22;4316;53.840;10.762;2023-05-29T09:58:25;21.10;93.80
8557;DHT22;4316;53.840;10.762;2023-05-29T10:00:51;21.40;93.80
8557;DHT22;4316;53.840;10.762;2023-05-29T10:03:17;21.50;93.70
8557;DHT22;4316;53.840;10.762;2023-05-29T10:05:50;21.80;93.10
8557;DHT22;4316;53.840;10.762;2023-05-29T10:08:18;22.00;93.20
8557;DHT22;4316;53.840;10.762;2023-05-29T10:10:47;21.70;93.40
8557;DHT22;4316;53.840;10.762;2023-05-29T10:13:14;21.90;93.30
8557;DHT22;4316;53.840;10.762;2023-05-29T10:15:46;21.40;93.50
8557;DHT22;4316;53.840;10.762;2023-05-29T10:18:35;21.70;93.60
8557;DHT22;4316;53.840;10.762;2023-05-29T10:21:02;21.90;93.50
8557;DHT22;4316;53.840;10.762;2023-05-29T10:23:29;22.30;92.70
8557;DHT22;4316;53.840;10.762;2023-05-29T10:26:06;22.00;92.20
8557;DHT22;4316;53.840;10.762;2023-05-29T10:28:41;21.50;93.00
8557;DHT22;4316;53.840;10.762;2023-05-29T10:31:16;21.60;92.70
8557;DHT22;4316;53.840;10.762;2023-05-29T10:33:49;21.70;93.30
8557;DHT22;4316;53.840;10.762;2023-05-29T10:36:21;22.40;92.60
8557;DHT22;4316;53.840;10.762;2023-05-29T10:38:49;22.30;92.60
8557;DHT22;4316;53.840;10.762;2023-05-29T10:41:29;22.40;92.10
8557;DHT22;4316;53.840;10.762;2023-05-29T10:43:59;22.50;92.20
8557;DHT22;4316;53.840;10.762;2023-05-29T10:49:20;22.80;91.30
8557;DHT22;4316;53.840;10.762;2023-05-29T10:51:46;23.10;91.00
8557;DHT22;4316;53.840;10.762;2023-05-29T10:54:14;23.40;90.50
8557;DHT22;4316;53.840;10.762;2023-05-29T10:56:40;23.50;90.40
8557;DHT22;4316;53.840;10.762;2023-05-29T10:59:08;23.50;87.90
8557;DHT22;4316;53.840;10.762;2023-05-29T11:01:34;22.80;89.40
8557;DHT22;4316;53.840;10.762;2023-05-29T11:06:41;23.40;90.80
8557;DHT22;4316;53.840;10.762;2023-05-29T11:09:37;23.80;90.30
8557;DHT22;4316;53.840;10.762;2023-05-29T11:12:14;24.10;89.40
8557;DHT22;4316;53.840;10.762;2023-05-29T11:14:56;23.90;88.60
8557;DHT22;4316;53.840;10.762;2023-05-29T11:17:42;23.80;88.90
8557;DHT22;4316;53.840;10.762;2023-05-29T11:25:24;22.50;90.30
8557;DHT22;4316;53.840;10.762;2023-05-29T11:27:50;22.80;89.90
8557;DHT22;4316;53.840;10.762;2023-05-29T11:30:19;23.00;89.00
8557;DHT22;4316;53.840;10.762;2023-05-29T11:32:46;23.20;87.60
8557;DHT22;4316;53.840;10.762;2023-05-29T11:35:13;23.50;88.80
8557;DHT22;4316;53.840;10.762;2023-05-29T11:37:39;23.50;87.20
8557;DHT22;4316;53.840;10.762;2023-05-29T11:40:06;23.20;89.20
8557;DHT22;4316;53.840;10.762;2023-05-29T11:42:33;23.40;88.20
8557;DHT22;4316;53.840;10.762;2023-05-29T11:45:12;23.90;88.60
8557;DHT22;4316;53.840;10.762;2023-05-29T11:47:54;24.10;88.80
8557;DHT22;4316;53.840;10.762;2023-05-29T11:50:42;24.60;87.40
8557;DHT22;4316;53.840;10.762;2023-05-29T11:53:07;24.60;83.20
8557;DHT22;4316;53.840;10.762;2023-05-29T11:55:36;24.30;85.10
8557;DHT22;4316;53.840;10.762;2023-05-29T11:58:03;24.60;85.00
8557;DHT22;4316;53.840;10.762;2023-05-29T12:00:33;24.70;83.60
8557;DHT22;4316;53.840;10.762;2023-05-29T12:02:59;24.50;83.10
8557;DHT22;4316;53.840;10.762;2023-05-29T12:05:50;24.20;82.20
8557;DHT22;4316;53.840;10.762;2023-05-29T12:08:24;24.20;82.80
8557;DHT22;4316;53.840;10.762;2023-05-29T12:10:52;24.20;81.80
8557;DHT22;4316;53.840;10.762;2023-05-29T12:13:21;24.30;83.60
8557;DHT22;4316;53.840;10.762;2023-05-29T12:15:49;24.60;81.90
8557;DHT22;4316;53.840;10.762;2023-05-29T12:18:17;24.50;81.40
8557;DHT22;4316;53.840;10.762;2023-05-29T12:20:42;24.30;83.30
8557;DHT22;4316;53.840;10.762;2023-05-29T12:23:08;24.10;81.70
8557;DHT22;4316;53.840;10.762;2023-05-29T12:25:34;23.90;81.10
8557;DHT22;4316;53.840;10.762;2023-05-29T12:28:03;23.60;83.70
8557;DHT22;4316;53.840;10.762;2023-05-29T12:30:29;23.40;81.70
8557;DHT22;4316;53.840;10.762;2023-05-29T12:32:54;22.60;81.50
8557;DHT22;4316;53.840;10.762;2023-05-29T12:37:49;22.60;83.40
8557;DHT22;4316;53.840;10.762;2023-05-29T12:40:26;22.70;81.40
8557;DHT22;4316;53.840;10.762;2023-05-29T12:43:00;23.10;81.40
8557;DHT22;4316;53.840;10.762;2023-05-29T12:45:30;23.50;79.70
8557;DHT22;4316;53.840;10.762;2023-05-29T12:47:57;23.10;81.20
8557;DHT22;4316;53.840;10.762;2023-05-29T12:50:25;22.80;81.00
8557;DHT22;4316;53.840;10.762;2023-05-29T12:53:02;22.70;81.00
8557;DHT22;4316;53.840;10.762;2023-05-29T12:55:35;22.80;82.20
8557;DHT22;4316;53.840;10.762;2023-05-29T12:58:06;23.30;78.60
8557;DHT22;4316;53.840;10.762;2023-05-29T13:00:34;23.20;78.30
8557;DHT22;4316;53.840;10.762;2023-05-29T13:03:00;23.30;79.60
8557;DHT22;4316;53.840;10.762;2023-05-29T13:05:27;23.30;79.30
8557;DHT22;4316;53.840;10.762;2023-05-29T13:07:53;23.60;79.60
8557;DHT22;4316;53.840;10.762;2023-05-29T13:10:19;23.90;78.30
8557;DHT22;4316;53.840;10.762;2023-05-29T13:12:46;24.10;76.30
8557;DHT22;4316;53.840;10.762;2023-05-29T13:15:13;24.10;77.80
8557;DHT22;4316;53.840;10.762;2023-05-29T13:17:39;24.10;79.30
8557;DHT22;4316;53.840;10.762;2023-05-29T13:20:09;23.60;79.40
8557;DHT22;4316;53.840;10.762;2023-05-29T13:22:36;23.30;79.50
8557;DHT22;4316;53.840;10.762;2023-05-29T13:25:02;23.50;79.10
8557;DHT22;4316;53.840;10.762;2023-05-29T13:27:28;23.60;82.40
8557;DHT22;4316;53.840;10.762;2023-05-29T13:29:53;23.60;80.70
8557;DHT22;4316;53.840;10.762;2023-05-29T13:32:20;23.60;80.00
8557;DHT22;4316;53.840;10.762;2023-05-29T13:34:46;23.00;81.30
8557;DHT22;4316;53.840;10.762;2023-05-29T13:37:11;23.20;80.90
8557;DHT22;4316;53.840;10.762;2023-05-29T13:39:37;23.30;81.40
8557;DHT22;4316;53.840;10.762;2023-05-29T13:42:03;23.30;80.50
8557;DHT22;4316;53.840;10.762;2023-05-29T13:44:28;23.20;82.30
8557;DHT22;4316;53.840;10.762;2023-05-29T13:46:54;23.40;81.00
8557;DHT22;4316;53.840;10.762;2023-05-29T13:49:19;23.00;82.40
8557;DHT22;4316;53.840;10.762;2023-05-29T13:51:45;23.20;82.70
8557;DHT22;4316;53.840;10.762;2023-05-29T13:54:12;23.30;82.70
8557;DHT22;4316;53.840;10.762;2023-05-29T13:56:38;23.40;82.10
8557;DHT22;4316;53.840;10.762;2023-05-29T13:59:03;23.40;82.30
8557;DHT22;4316;53.840;10.762;2023-05-29T14:01:32;23.70;81.30
8557;DHT22;4316;53.840;10.762;2023-05-29T14:03:58;23.70;80.10
8557;DHT22;4316;53.840;10.762;2023-05-29T14:06:24;23.30;80.70
8557;DHT22;4316;53.840;10.762;2023-05-29T14:08:50;22.90;82.70
8557;DHT22;4316;53.840;10.762;2023-05-29T14:11:15;23.10;83.60
8557;DHT22;4316;53.840;10.762;2023-05-29T14:13:41;23.30;83.90
8557;DHT22;4316;53.840;10.762;2023-05-29T14:16:07;23.40;82.90
8557;DHT22;4316;53.840;10.762;2023-05-29T14:18:32;23.70;82.90
8557;DHT22;4316;53.840;10.762;2023-05-29T14:20:58;23.80;81.10
8557;DHT22;4316;53.840;10.762;2023-05-29T14:23:23;23.70;80.30
8557;DHT22;4316;53.840;10.762;2023-05-29T14:25:49;23.20;79.90
8557;DHT22;4316;53.840;10.762;2023-05-29T14:28:16;22.90;81.50
8557;DHT22;4316;53.840;10.762;2023-05-29T14:30:42;23.00;81.90
8557;DHT22;4316;53.840;10.762;2023-05-29T14:33:08;23.40;82.40
8557;DHT22;4316;53.840;10.762;2023-05-29T14:35:34;23.40;80.10
8557;DHT22;4316;53.840;10.762;2023-05-29T14:37:59;23.20;80.50
8557;DHT22;4316;53.840;10.762;2023-05-29T14:40:25;22.90;81.40
8557;DHT22;4316;53.840;10.762;2023-05-29T14:42:51;22.90;81.80
8557;DHT22;4316;53.840;10.762;2023-05-29T14:45:17;23.10;82.70
8557;DHT22;4316;53.840;10.762;2023-05-29T14:47:42;23.20;82.20
8557;DHT22;4316;53.840;10.762;2023-05-29T14:50:08;23.40;83.40
8557;DHT22;4316;53.840;10.762;2023-05-29T14:52:34;23.70;81.50
8557;DHT22;4316;53.840;10.762;2023-05-29T14:55:04;23.60;80.20
8557;DHT22;4316;53.840;10.762;2023-05-29T14:57:29;23.30;80.60
8557;DHT22;4316;53.840;10.762;2023-05-29T14:59:58;23.20;81.80
8557;DHT22;4316;53.840;10.762;2023-05-29T15:02:23;23.00;80.30
8557;DHT22;4316;53.840;10.762;2023-05-29T15:04:49;22.90;82.60
8557;DHT22;4316;53.840;10.762;2023-05-29T15:07:15;23.00;81.90
8557;DHT22;4316;53.840;10.762;2023-05-29T15:09:41;23.00;81.00
8557;DHT22;4316;53.840;10.762;2023-05-29T15:12:07;22.80;81.50
8557;DHT22;4316;53.840;10.762;2023-05-29T15:14:33;22.90;82.10
8557;DHT22;4316;53.840;10.762;2023-05-29T15:16:59;22.80;81.20
8557;DHT22;4316;53.840;10.762;2023-05-29T15:19:25;22.90;82.30
8557;DHT22;4316;53.840;10.762;2023-05-29T15:21:51;23.10;82.90
8557;DHT22;4316;53.840;10.762;2023-05-29T15:24:17;23.20;80.50
8557;DHT22;4316;53.840;10.762;2023-05-29T15:26:42;23.10;81.90
8557;DHT22;4316;53.840;10.762;2023-05-29T15:29:08;23.20;82.00
8557;DHT22;4316;53.840;10.762;2023-05-29T15:31:33;23.30;81.60
8557;DHT22;4316;53.840;10.762;2023-05-29T15:33:59;23.40;82.30
8557;DHT22;4316;53.840;10.762;2023-05-29T15:36:24;23.30;81.10
8557;DHT22;4316;53.840;10.762;2023-05-29T15:38:50;23.20;82.50
8557;DHT22;4316;53.840;10.762;2023-05-29T15:41:16;23.10;81.50
8557;DHT22;4316;53.840;10.762;2023-05-29T15:43:41;22.90;81.80
8557;DHT22;4316;53.840;10.762;2023-05-29T15:46:07;22.80;81.80
8557;DHT22;4316;53.840;10.762;2023-05-29T15:48:33;22.50;81.80
8557;DHT22;4316;53.840;10.762;2023-05-29T15:50:59;22.40;83.10
8557;DHT22;4316;53.840;10.762;2023-05-29T15:53:25;22.50;82.20
8557;DHT22;4316;53.840;10.762;2023-05-29T15:55:50;22.30;82.50
8557;DHT22;4316;53.840;10.762;2023-05-29T15:58:16;22.20;83.90
8557;DHT22;4316;53.840;10.762;2023-05-29T16:00:41;21.80;82.70
8557;DHT22;4316;53.840;10.762;2023-05-29T16:03:07;21.90;84.30
8557;DHT22;4316;53.840;10.762;2023-05-29T16:05:34;22.00;83.60
8557;DHT22;4316;53.840;10.762;2023-05-29T16:08:00;22.10;84.10
8557;DHT22;4316;53.840;10.762;2023-05-29T16:10:26;22.10;84.10